Pocatello, ID (83201)

4:37 AM MDT on June 27, 2017 (GMT -0600)
Diamond W Trailer Park | | Change Station

Elev 5537 ft 42.89 °N, 112.47 °W | Updated 32 seconds ago

Mostly Cloudy
Mostly Cloudy
69.3 °F
Feels Like 69.3 °F
N
2.0
Wind Variable Wind from SW

Today
High -- | Low -- °F
--% Chance of Precip.
Yesterday
High -- | Low -- °F
Precip. -- in
Pressure 29.70 in
Visibility 10.0 miles
Clouds Few 5000 ft
Scattered Clouds 11000 ft
Dew Point 49 °F
Humidity 49%
Rainfall 0.00 in
Snow Depth Not available.
5:53 AM 9:12 PM
Waxing Crescent, 15% visible
METAR KPIH 270953Z AUTO 06003KT 10SM FEW050 SCT110 21/08 A2989 RMK AO2 RAB12E21B41E51 SLP058 P0000 T02110083
Pressure 29.70 in
Visibility 10.0 miles
Clouds Few 5000 ft
Scattered Clouds 11000 ft
Dew Point 49 °F
Humidity 49%
Rainfall 0.00 in
Snow Depth Not available.
5:53 AM 9:12 PM
Waxing Crescent, 15% visible
METAR KPIH 270953Z AUTO 06003KT 10SM FEW050 SCT110 21/08 A2989 RMK AO2 RAB12E21B41E51 SLP058 P0000 T02110083

Get Severe Weather Alerts

Thanks for signing up!

Be on the lookout for a verification email in your inbox.

You'll start receiving the daily forecast at 6 AM.

×

10-Day Weather Forecast

Almanac

Astronomy

Jun. 27, 2017 Rise Set
Actual Time
Civil Twilight
Nautical Twilight
Astronomical Twilight
Moon
Length of Visible Light
Length of Day
Tomorrow will be .
, % of the Moon is Illuminated

Today's Extremes

State Highs State Lows

Community

WunderPhotos

Category 6

Welcome to Category 6. This is the collective home for Weather Underground's featured writeups by Dr. Jeff Masters (right), Bob Henson (left), Chris Burt, and other regular contributors.

Nearby

Air Quality

  Air Quality AQ Index Pollutant
Not available.

Snow Depth

Station Depth Elevation

Earthquake Activity

City Distance Mag. Time & Date
Minimum magnitude displayed is 2.5.

Coastal Water Temperatures

Place Temperature

Stations

Nearby Weather Stations

Station Location Temp. Windchill Dew Point Humidity Wind Precip. Elev Updated Type
                   

Watches & Warnings

There are currently no watches in effect.